Time;durP1;ratioP1;P1;durP2;ratioP2;P2;SDS_P1;SDS_P2;PMS_P1;PMS_P2;Temp;Humidity;BMP_temperature;BMP_pressure;BME280_temperature;BME280_humidity;BME280_pressure;Samples;Min_cycle;Max_cycle;Signal;HPM_P1;HPM_P2
2023/09/30 00:01:45;;;;;;;12.50;3.38;;;13.30;99.90;;;;;;6183597;23;20067;-72
2023/09/30 00:04:11;;;;;;;14.18;3.50;;;13.20;99.90;;;;;;6210596;23;20024;-73
2023/09/30 00:06:37;;;;;;;12.52;4.38;;;13.30;99.90;;;;;;6183757;23;20036;-73
2023/09/30 00:09:03;;;;;;;17.75;4.28;;;13.30;99.90;;;;;;6210888;23;20020;-73
2023/09/30 00:11:29;;;;;;;10.40;3.50;;;13.20;99.90;;;;;;6210449;23;20548;-73
2023/09/30 00:13:54;;;;;;;14.98;4.15;;;13.30;99.90;;;;;;6183677;23;20029;-73
2023/09/30 00:16:20;;;;;;;11.88;3.33;;;13.30;99.90;;;;;;6210144;23;20650;-73
2023/09/30 00:18:46;;;;;;;11.45;2.60;;;13.30;99.90;;;;;;6210388;23;20024;-72
2023/09/30 00:21:12;;;;;;;9.00;3.83;;;13.30;99.90;;;;;;6210385;23;20087;-72
2023/09/30 00:23:37;;;;;;;9.75;3.42;;;13.30;99.90;;;;;;6210291;23;20031;-73
2023/09/30 00:26:03;;;;;;;14.60;3.47;;;13.20;99.90;;;;;;6210488;23;20736;-73
2023/09/30 00:28:29;;;;;;;16.80;3.88;;;13.20;99.90;;;;;;6210502;23;20016;-73
2023/09/30 00:30:55;;;;;;;11.95;3.20;;;13.20;99.90;;;;;;6212194;23;20091;-73
2023/09/30 00:33:21;;;;;;;11.95;3.42;;;13.20;99.90;;;;;;6185310;23;20049;-72
2023/09/30 00:35:46;;;;;;;8.27;2.88;;;13.20;99.90;;;;;;6212204;23;20096;-73
2023/09/30 00:38:12;;;;;;;12.40;3.58;;;13.20;99.90;;;;;;6185514;23;20020;-71
2023/09/30 00:40:38;;;;;;;12.65;3.97;;;13.20;99.90;;;;;;6212313;23;20021;-73
2023/09/30 00:43:03;;;;;;;14.32;3.90;;;13.20;99.90;;;;;;6160622;23;20103;-73
2023/09/30 00:45:30;;;;;;;16.85;3.38;;;13.20;99.90;;;;;;6212254;23;20008;-72
2023/09/30 00:47:56;;;;;;;14.27;3.55;;;13.10;99.90;;;;;;6185388;23;20342;-74
2023/09/30 00:50:22;;;;;;;11.77;3.47;;;13.20;99.90;;;;;;6212168;23;20047;-73
2023/09/30 00:52:49;;;;;;;11.93;4.10;;;13.10;99.90;;;;;;6212126;23;20028;-73
2023/09/30 00:55:16;;;;;;;10.70;3.47;;;13.10;99.90;;;;;;6212581;23;20108;-73
2023/09/30 00:57:44;;;;;;;13.57;4.15;;;13.10;99.90;;;;;;6212141;23;20412;-73
2023/09/30 01:00:12;;;;;;;10.82;2.90;;;13.10;99.90;;;;;;6185184;23;20017;-73
2023/09/30 01:02:41;;;;;;;13.98;3.80;;;13.10;99.90;;;;;;6185555;23;20030;-73
2023/09/30 01:05:08;;;;;;;11.52;3.78;;;13.10;99.90;;;;;;6212149;23;20031;-73
2023/09/30 01:07:34;;;;;;;6.90;2.90;;;13.10;99.90;;;;;;6185266;23;20499;-73
2023/09/30 01:10:01;;;;;;;12.32;3.85;;;13.10;99.90;;;;;;6212276;23;20139;-73
2023/09/30 01:12:27;;;;;;;14.90;4.40;;;13.10;99.90;;;;;;6212144;23;20025;-73
2023/09/30 01:14:58;;;;;;;12.98;3.92;;;13.10;99.90;;;;;;6184866;23;20040;-72
2023/09/30 01:17:24;;;;;;;7.95;3.25;;;13.10;99.90;;;;;;6212511;23;20380;-73
2023/09/30 01:19:49;;;;;;;11.30;3.20;;;13.10;99.90;;;;;;6185340;23;20024;-73
2023/09/30 01:22:16;;;;;;;10.57;3.15;;;13.10;99.90;;;;;;6212133;23;20028;-73
2023/09/30 01:24:42;;;;;;;13.23;3.90;;;13.10;99.90;;;;;;6212302;23;20052;-73
2023/09/30 01:27:12;;;;;;;14.68;3.85;;;13.10;99.90;;;;;;6185057;23;20025;-73
2023/09/30 01:29:38;;;;;;;13.82;4.50;;;13.00;99.90;;;;;;6212284;23;20019;-73
2023/09/30 01:32:09;;;;;;;7.75;3.20;;;13.10;99.90;;;;;;6212106;23;20055;-73
2023/09/30 01:34:35;;;;;;;10.25;3.00;;;13.10;99.90;;;;;;6185027;23;20060;-74
2023/09/30 01:37:01;;;;;;;12.00;4.20;;;13.10;99.90;;;;;;6212372;23;20099;-73
2023/09/30 01:39:27;;;;;;;12.38;3.20;;;13.10;99.90;;;;;;6211748;23;20056;-73
2023/09/30 01:41:53;;;;;;;17.33;3.90;;;13.10;99.90;;;;;;6211262;23;20024;-73
2023/09/30 01:44:19;;;;;;;14.48;3.88;;;13.10;99.90;;;;;;6211998;23;20016;-73
2023/09/30 01:46:45;;;;;;;13.48;5.00;;;13.10;99.90;;;;;;6211645;23;20019;-72
2023/09/30 01:49:11;;;;;;;12.05;4.20;;;13.10;99.90;;;;;;6211952;23;20044;-73
2023/09/30 01:51:37;;;;;;;16.95;4.22;;;13.10;99.90;;;;;;6211839;23;20051;-72
2023/09/30 01:54:02;;;;;;;11.55;3.72;;;13.10;99.90;;;;;;6212081;23;20123;-73
2023/09/30 01:56:30;;;;;;;10.40;3.53;;;13.10;99.90;;;;;;6211284;23;20012;-72
2023/09/30 01:58:55;;;;;;;12.13;3.33;;;13.10;99.90;;;;;;6184804;23;20055;-73
2023/09/30 02:01:21;;;;;;;10.65;3.60;;;13.00;99.90;;;;;;6211572;23;20016;-73
2023/09/30 02:03:47;;;;;;;14.77;3.88;;;13.10;99.90;;;;;;6211356;23;20024;-72
2023/09/30 02:11:05;;;;;;;12.07;3.20;;;13.00;99.90;;;;;;6207957;23;20025;-73
2023/09/30 02:13:35;;;;;;;12.77;3.92;;;13.00;99.90;;;;;;6181456;23;20020;-73
2023/09/30 02:16:01;;;;;;;13.65;4.50;;;13.00;99.90;;;;;;6181552;23;20100;-73
2023/09/30 02:18:27;;;;;;;15.45;3.88;;;13.00;99.90;;;;;;6183103;23;20056;-73
2023/09/30 02:20:53;;;;;;;13.02;3.70;;;13.00;99.90;;;;;;6181746;23;20051;-73
2023/09/30 02:23:19;;;;;;;12.77;3.92;;;13.00;99.90;;;;;;6181335;23;20031;-73
2023/09/30 02:25:44;;;;;;;11.48;3.30;;;13.00;99.90;;;;;;6181436;23;20024;-73
2023/09/30 02:28:10;;;;;;;13.18;4.00;;;13.00;99.90;;;;;;6181666;23;20570;-73
2023/09/30 02:30:36;;;;;;;10.77;3.33;;;13.00;99.90;;;;;;6181207;23;20036;-72
2023/09/30 02:33:04;;;;;;;12.65;4.18;;;13.00;99.90;;;;;;6154754;23;20357;-73
2023/09/30 02:35:30;;;;;;;14.95;4.78;;;12.90;99.90;;;;;;6181507;23;20017;-72
2023/09/30 02:37:56;;;;;;;10.45;4.80;;;12.90;99.90;;;;;;6179614;23;20044;-73
2023/09/30 02:40:24;;;;;;;9.63;3.67;;;12.90;99.90;;;;;;6180999;23;20017;-73
2023/09/30 02:42:51;;;;;;;12.00;4.05;;;13.00;99.90;;;;;;6181670;23;20326;-73
2023/09/30 02:45:17;;;;;;;17.00;4.40;;;13.00;99.90;;;;;;6181647;23;20457;-73
2023/09/30 02:47:43;;;;;;;15.82;4.60;;;13.00;99.90;;;;;;6181277;23;20199;-72
2023/09/30 02:50:13;;;;;;;14.13;4.00;;;12.90;99.90;;;;;;6182551;23;20021;-73
2023/09/30 02:52:40;;;;;;;15.60;4.70;;;12.90;99.90;;;;;;6179674;23;20021;-73
2023/09/30 02:55:10;;;;;;;17.27;4.50;;;12.90;99.90;;;;;;6181355;23;20029;-73
2023/09/30 02:57:36;;;;;;;13.70;4.70;;;12.90;99.90;;;;;;6181296;23;20416;-73
2023/09/30 03:00:32;;;;;;;15.45;5.22;;;12.90;99.90;;;;;;6179166;23;20021;-72
2023/09/30 03:02:55;;;;;;;19.70;4.57;;;12.90;99.90;;;;;;6178661;23;20056;-73
2023/09/30 03:05:21;;;;;;;13.40;4.07;;;12.90;99.90;;;;;;6181292;23;20469;-73
2023/09/30 03:07:47;;;;;;;16.05;4.88;;;12.90;99.90;;;;;;6181913;23;20060;-73
2023/09/30 03:10:19;;;;;;;14.38;4.32;;;12.90;99.90;;;;;;6181439;23;20381;-73
2023/09/30 03:12:49;;;;;;;14.77;3.72;;;12.90;99.90;;;;;;6230524;23;20403;-72
2023/09/30 03:15:15;;;;;;;11.77;4.68;;;12.90;99.90;;;;;;6241426;23;20024;-72
2023/09/30 03:17:41;;;;;;;13.60;4.38;;;12.90;99.90;;;;;;6241454;23;20024;-73
2023/09/30 03:20:11;;;;;;;14.77;4.10;;;12.90;99.90;;;;;;6241638;23;20024;-73
2023/09/30 03:22:43;;;;;;;8.35;3.65;;;12.90;99.90;;;;;;6241340;23;20016;-72
2023/09/30 03:25:15;;;;;;;12.88;5.43;;;12.90;99.90;;;;;;6214005;23;20027;-73
2023/09/30 03:27:40;;;;;;;11.00;4.10;;;12.90;99.90;;;;;;6241644;23;20086;-73
2023/09/30 03:30:08;;;;;;;10.88;5.35;;;12.90;99.90;;;;;;6241270;23;20078;-72
2023/09/30 03:32:37;;;;;;;11.25;4.05;;;12.90;99.90;;;;;;6241489;23;20088;-72
2023/09/30 03:35:05;;;;;;;13.10;4.80;;;12.80;99.90;;;;;;6241366;23;20087;-72
2023/09/30 03:37:34;;;;;;;11.07;3.70;;;12.90;99.90;;;;;;6241144;23;20020;-73
2023/09/30 03:40:11;;;;;;;13.35;5.50;;;12.80;99.90;;;;;;6241062;23;20087;-73
2023/09/30 03:42:38;;;;;;;11.13;5.03;;;12.90;99.90;;;;;;6240783;23;20555;-72
2023/09/30 03:45:07;;;;;;;13.20;4.63;;;12.80;99.90;;;;;;6241009;23;20095;-73
2023/09/30 03:47:35;;;;;;;12.77;5.15;;;12.80;99.90;;;;;;6242020;23;20676;-73
2023/09/30 03:50:04;;;;;;;14.70;4.25;;;12.80;99.90;;;;;;6241751;23;20016;-73
2023/09/30 03:52:32;;;;;;;17.35;5.20;;;12.80;99.90;;;;;;6241278;23;20016;-71
2023/09/30 03:54:59;;;;;;;16.77;6.25;;;12.80;99.90;;;;;;6241226;23;20507;-73
2023/09/30 03:57:25;;;;;;;15.38;4.43;;;12.70;99.90;;;;;;6241020;23;20019;-73
2023/09/30 03:59:53;;;;;;;12.85;4.25;;;12.70;99.90;;;;;;6241209;23;20024;-73
2023/09/30 04:02:19;;;;;;;8.68;3.83;;;12.70;99.90;;;;;;6241254;23;20332;-73
2023/09/30 04:04:46;;;;;;;11.68;4.80;;;12.70;99.90;;;;;;6215807;23;20091;-73
2023/09/30 04:07:12;;;;;;;12.88;4.88;;;12.70;99.90;;;;;;6244196;23;20019;-73
2023/09/30 04:09:38;;;;;;;13.65;4.57;;;12.70;99.90;;;;;;6217293;23;20074;-73
2023/09/30 04:12:04;;;;;;;11.60;4.35;;;12.80;99.90;;;;;;6244265;23;20116;-71
2023/09/30 04:14:29;;;;;;;12.63;4.50;;;12.70;99.90;;;;;;6244570;23;20317;-71
2023/09/30 04:16:55;;;;;;;13.07;5.03;;;12.60;99.90;;;;;;6244405;23;20341;-71
2023/09/30 04:19:22;;;;;;;8.15;4.15;;;12.70;99.90;;;;;;6244441;23;20479;-71
2023/09/30 04:21:47;;;;;;;12.18;4.60;;;12.60;99.90;;;;;;6216899;23;20397;-73
2023/09/30 04:24:13;;;;;;;11.48;4.88;;;12.60;99.90;;;;;;6244573;23;20055;-71
2023/09/30 04:26:40;;;;;;;11.25;4.60;;;12.70;99.90;;;;;;6244484;23;20440;-71
2023/09/30 04:29:07;;;;;;;14.55;4.18;;;12.60;99.90;;;;;;6192028;23;20028;-71
2023/09/30 04:31:33;;;;;;;10.63;3.95;;;12.70;99.90;;;;;;6244229;23;20372;-71
2023/09/30 04:33:59;;;;;;;11.30;4.60;;;12.60;99.90;;;;;;6244257;23;20030;-71
2023/09/30 04:36:24;;;;;;;12.95;4.43;;;12.60;99.90;;;;;;6243917;23;20336;-71
2023/09/30 04:38:50;;;;;;;13.10;4.90;;;12.60;99.90;;;;;;6244284;23;20122;-71
2023/09/30 04:41:16;;;;;;;15.43;4.75;;;12.60;99.90;;;;;;6244106;23;20050;-71
2023/09/30 04:43:43;;;;;;;11.10;4.38;;;12.60;99.90;;;;;;6244110;23;20020;-71
2023/09/30 04:46:09;;;;;;;13.50;6.03;;;12.60;99.90;;;;;;6216983;23;20030;-72
2023/09/30 04:48:35;;;;;;;11.93;4.50;;;12.60;99.90;;;;;;6243988;23;20709;-73
2023/09/30 04:51:04;;;;;;;17.77;5.00;;;12.60;99.90;;;;;;6243625;23;20100;-73
2023/09/30 04:53:30;;;;;;;10.52;4.13;;;12.60;99.90;;;;;;6217247;23;20389;-73
2023/09/30 04:55:56;;;;;;;12.32;4.95;;;12.70;99.90;;;;;;6217031;23;20066;-73
2023/09/30 04:58:23;;;;;;;11.63;4.95;;;12.70;99.90;;;;;;6191942;23;20020;-73
2023/09/30 05:00:49;;;;;;;10.35;4.70;;;12.60;99.90;;;;;;6243974;23;20455;-73
2023/09/30 05:03:15;;;;;;;10.90;4.93;;;12.70;99.90;;;;;;6243990;23;20034;-73
2023/09/30 05:05:41;;;;;;;14.82;5.20;;;12.70;99.90;;;;;;6244178;23;20016;-73
2023/09/30 05:08:07;;;;;;;12.50;5.75;;;12.70;99.90;;;;;;6216769;23;20114;-71
2023/09/30 05:10:33;;;;;;;10.68;4.82;;;12.70;99.90;;;;;;6243754;23;20094;-73
2023/09/30 05:12:59;;;;;;;12.68;5.35;;;12.70;99.90;;;;;;6216893;23;20027;-73
2023/09/30 05:15:25;;;;;;;15.30;5.85;;;12.70;99.90;;;;;;6243593;23;20016;-71
2023/09/30 05:17:51;;;;;;;14.70;6.00;;;12.70;99.90;;;;;;6242471;23;20027;-71
2023/09/30 05:20:17;;;;;;;12.52;5.50;;;12.70;99.90;;;;;;6242342;23;20279;-72
2023/09/30 05:22:46;;;;;;;15.45;5.82;;;12.70;99.90;;;;;;6242572;23;20027;-72
2023/09/30 05:25:16;;;;;;;20.20;7.03;;;12.60;99.90;;;;;;6241998;23;20028;-72
2023/09/30 05:27:42;;;;;;;20.05;5.93;;;12.60;99.90;;;;;;6242544;23;20035;-72
2023/09/30 05:30:10;;;;;;;12.40;6.00;;;12.60;99.90;;;;;;6242945;23;20372;-72
2023/09/30 05:32:38;;;;;;;12.38;5.32;;;12.60;99.90;;;;;;6215817;23;20062;-71
2023/09/30 05:35:06;;;;;;;20.23;6.43;;;12.60;99.90;;;;;;6214837;23;20019;-71
2023/09/30 05:37:32;;;;;;;9.10;4.68;;;12.50;99.90;;;;;;6242469;23;20066;-70
2023/09/30 05:39:58;;;;;;;11.20;5.18;;;12.50;99.90;;;;;;6243719;23;20411;-71
2023/09/30 05:42:24;;;;;;;11.55;6.03;;;12.50;99.90;;;;;;6243705;23;20024;-72
2023/09/30 05:44:49;;;;;;;13.95;5.40;;;12.50;99.90;;;;;;6242759;23;20019;-72
2023/09/30 05:47:15;;;;;;;13.40;5.50;;;12.50;99.90;;;;;;6242873;23;20118;-72
2023/09/30 05:49:41;;;;;;;10.80;5.55;;;12.50;99.90;;;;;;6214826;23;20020;-71
2023/09/30 05:52:07;;;;;;;11.05;5.60;;;12.50;99.90;;;;;;6242377;23;20018;-71
2023/09/30 05:54:33;;;;;;;15.70;6.30;;;12.50;99.90;;;;;;6242311;23;20019;-72
2023/09/30 05:57:00;;;;;;;12.07;5.47;;;12.50;99.90;;;;;;6242155;23;20638;-72
2023/09/30 05:59:28;;;;;;;13.20;5.78;;;12.50;99.90;;;;;;6242365;23;20352;-72
2023/09/30 06:01:53;;;;;;;9.68;5.38;;;12.50;99.90;;;;;;6241770;23;20027;-72
2023/09/30 06:04:19;;;;;;;11.30;5.15;;;12.50;99.90;;;;;;6241393;23;20024;-71
2023/09/30 06:06:45;;;;;;;10.98;5.65;;;12.40;99.90;;;;;;6214988;23;20031;-72
2023/09/30 06:09:11;;;;;;;11.88;5.18;;;12.50;99.90;;;;;;6242248;23;20091;-72
2023/09/30 06:11:37;;;;;;;12.15;5.88;;;12.50;99.90;;;;;;6214558;23;20031;-72
2023/09/30 06:14:06;;;;;;;10.73;5.68;;;12.50;99.90;;;;;;6241879;23;20020;-72
2023/09/30 06:16:32;;;;;;;12.85;5.18;;;12.50;99.90;;;;;;6241597;23;20452;-73
2023/09/30 06:18:58;;;;;;;9.30;5.13;;;12.40;99.90;;;;;;6241760;23;20333;-72
2023/09/30 06:21:28;;;;;;;13.65;5.85;;;12.50;99.90;;;;;;6214535;23;20026;-73
2023/09/30 06:23:55;;;;;;;12.43;5.85;;;12.50;99.90;;;;;;6214803;23;20522;-73
2023/09/30 06:26:21;;;;;;;9.98;5.85;;;12.50;99.90;;;;;;6241464;23;20479;-73
2023/09/30 06:28:47;;;;;;;15.07;5.88;;;12.50;99.90;;;;;;6241805;23;20112;-73
2023/09/30 06:31:15;;;;;;;9.95;4.97;;;12.50;99.90;;;;;;6241551;23;20459;-72
2023/09/30 06:33:41;;;;;;;13.73;5.75;;;12.60;99.90;;;;;;6214746;23;20123;-72
2023/09/30 06:36:14;;;;;;;13.52;5.80;;;12.60;99.90;;;;;;6242298;23;20020;-72
2023/09/30 06:38:41;;;;;;;;;;;12.60;99.90;;;;;;6242074;23;20474;-72
2023/09/30 06:41:08;;;;;;;10.70;5.70;;;12.60;99.90;;;;;;6214862;23;19990;-72
2023/09/30 06:43:35;;;;;;;13.00;6.30;;;12.60;99.90;;;;;;6214585;23;20024;-73
2023/09/30 06:46:12;;;;;;;13.05;6.68;;;12.70;99.90;;;;;;6214531;23;20020;-72
2023/09/30 06:48:42;;;;;;;20.35;7.35;;;12.70;99.90;;;;;;6214990;23;20460;-72
2023/09/30 06:51:12;;;;;;;12.93;6.57;;;12.80;99.90;;;;;;6241659;23;20031;-72
2023/09/30 06:53:38;;;;;;;15.35;6.65;;;12.90;99.90;;;;;;6241859;23;20024;-72
2023/09/30 06:56:08;;;;;;;12.27;6.40;;;12.90;99.90;;;;;;6241612;23;20430;-72
2023/09/30 06:58:34;;;;;;;21.35;7.75;;;12.90;99.90;;;;;;6241003;23;20056;-71
2023/09/30 07:00:59;;;;;;;12.43;6.85;;;13.00;99.90;;;;;;6241286;23;20012;-72
2023/09/30 07:03:25;;;;;;;16.50;6.78;;;13.00;99.90;;;;;;6189270;23;20020;-72
2023/09/30 07:05:51;;;;;;;14.13;7.18;;;13.00;99.90;;;;;;6241591;23;20024;-72
2023/09/30 07:08:17;;;;;;;16.40;6.97;;;13.00;99.90;;;;;;6241214;23;20051;-73
2023/09/30 07:10:46;;;;;;;15.82;7.20;;;13.10;99.90;;;;;;6214336;23;20051;-72
2023/09/30 07:13:12;;;;;;;17.30;8.02;;;13.10;99.90;;;;;;6241013;23;20024;-72
2023/09/30 07:15:37;;;;;;;17.23;7.32;;;13.10;99.90;;;;;;6213910;23;20027;-72
2023/09/30 07:18:03;;;;;;;17.42;7.43;;;13.10;99.90;;;;;;6241436;23;20094;-72
2023/09/30 07:20:32;;;;;;;17.73;8.20;;;13.20;99.90;;;;;;6215086;23;20024;-72
2023/09/30 07:23:00;;;;;;;20.83;8.15;;;13.20;99.90;;;;;;6243922;23;20031;-72
2023/09/30 07:25:26;;;;;;;19.33;8.25;;;13.20;99.90;;;;;;6243835;23;20334;-72
2023/09/30 07:27:52;;;;;;;13.95;7.70;;;13.30;99.90;;;;;;6242020;23;20067;-71
2023/09/30 07:30:17;;;;;;;17.85;8.05;;;13.30;99.90;;;;;;6214002;23;20326;-72
2023/09/30 07:32:44;;;;;;;21.83;9.23;;;13.30;99.90;;;;;;6241267;23;20031;-72
2023/09/30 07:35:11;;;;;;;15.27;8.27;;;13.40;99.90;;;;;;6241049;23;20031;-72
2023/09/30 07:37:36;;;;;;;18.00;7.90;;;13.40;99.90;;;;;;6241205;23;20024;-72
2023/09/30 07:40:04;;;;;;;19.67;7.70;;;13.50;99.90;;;;;;6213749;23;20024;-73
2023/09/30 07:42:30;;;;;;;19.15;8.52;;;13.50;99.90;;;;;;6240964;23;20023;-72
2023/09/30 07:44:56;;;;;;;18.58;8.40;;;13.50;99.90;;;;;;6213356;23;20028;-72
2023/09/30 07:47:23;;;;;;;18.30;8.20;;;13.60;99.90;;;;;;6238049;23;20032;-72
2023/09/30 07:49:48;;;;;;;15.13;8.20;;;13.60;99.90;;;;;;6240254;23;20077;-72
2023/09/30 07:52:15;;;;;;;16.13;7.97;;;13.70;99.90;;;;;;6239808;23;20431;-72
2023/09/30 07:54:40;;;;;;;17.77;8.38;;;13.70;99.90;;;;;;6213280;23;20109;-72
2023/09/30 07:57:06;;;;;;;17.90;8.85;;;13.80;99.90;;;;;;6240414;23;20025;-72
2023/09/30 07:59:33;;;;;;;16.27;8.27;;;13.80;99.90;;;;;;6240376;23;20452;-71
2023/09/30 08:02:00;;;;;;;17.48;7.65;;;13.80;99.90;;;;;;6213173;23;20032;-72
2023/09/30 08:04:26;;;;;;;19.20;7.97;;;13.80;99.90;;;;;;6240617;23;20020;-72
2023/09/30 08:06:51;;;;;;;18.35;8.50;;;13.80;99.90;;;;;;6212991;23;20055;-72
2023/09/30 08:09:18;;;;;;;20.90;8.13;;;13.80;99.90;;;;;;6237908;23;20027;-72
2023/09/30 08:11:44;;;;;;;16.83;8.10;;;13.90;99.90;;;;;;6212721;23;20035;-71
2023/09/30 08:14:10;;;;;;;17.90;7.88;;;13.90;99.90;;;;;;6239609;23;20020;-76
2023/09/30 08:16:36;;;;;;;13.32;8.55;;;13.90;99.90;;;;;;6240295;23;20026;-72
2023/09/30 08:19:03;;;;;;;17.92;8.38;;;14.00;99.90;;;;;;6213333;23;20209;-72
2023/09/30 08:21:29;;;;;;;17.60;9.25;;;14.00;99.90;;;;;;6213156;23;20098;-72
2023/09/30 08:23:55;;;;;;;20.92;8.48;;;14.00;99.90;;;;;;6213647;23;20432;-71
2023/09/30 08:26:21;;;;;;;16.63;8.23;;;14.00;99.90;;;;;;6240556;23;20012;-71
2023/09/30 08:28:47;;;;;;;13.27;8.25;;;14.10;99.90;;;;;;6240775;23;20019;-72
2023/09/30 08:31:14;;;;;;;16.17;9.75;;;14.10;99.90;;;;;;6241138;23;20441;-72
2023/09/30 08:33:41;;;;;;;16.23;7.30;;;14.10;99.90;;;;;;6241047;23;20090;-71
2023/09/30 08:36:08;;;;;;;19.65;9.05;;;14.20;99.90;;;;;;6241785;23;20022;-71
2023/09/30 08:38:37;;;;;;;21.65;10.13;;;14.20;99.90;;;;;;6214062;23;20476;-72
2023/09/30 08:41:04;;;;;;;21.58;9.05;;;14.30;99.90;;;;;;6241398;23;20028;-72
2023/09/30 08:43:33;;;;;;;15.50;8.70;;;14.40;99.90;;;;;;6213710;23;20402;-73
2023/09/30 08:46:02;;;;;;;19.50;9.45;;;14.40;99.90;;;;;;6214668;23;20035;-71
2023/09/30 08:48:30;;;;;;;20.45;8.93;;;14.50;99.90;;;;;;6240870;23;20038;-72
2023/09/30 08:50:58;;;;;;;16.75;8.85;;;14.50;99.90;;;;;;6241663;23;20020;-72
2023/09/30 08:53:24;;;;;;;21.00;9.52;;;14.50;99.90;;;;;;6190451;23;20476;-72
2023/09/30 08:55:56;;;;;;;17.88;8.85;;;14.50;99.90;;;;;;6242511;23;20024;-72
2023/09/30 08:58:26;;;;;;;15.32;8.38;;;14.50;99.90;;;;;;6242233;23;20051;-74
2023/09/30 09:00:52;;;;;;;22.08;8.77;;;14.60;99.90;;;;;;6242552;23;20313;-71
2023/09/30 09:03:20;;;;;;;16.27;9.48;;;14.70;99.90;;;;;;6242642;23;20020;-70
2023/09/30 09:05:57;;;;;;;16.50;8.65;;;14.80;99.90;;;;;;6242677;23;20024;-71
2023/09/30 09:08:26;;;;;;;20.10;8.48;;;14.80;99.90;;;;;;6215617;23;20020;-69
2023/09/30 09:10:57;;;;;;;16.05;8.50;;;14.90;99.90;;;;;;6241978;23;20067;-69
2023/09/30 09:13:24;;;;;;;23.55;10.32;;;15.00;99.90;;;;;;6242275;23;20020;-69
2023/09/30 09:16:05;;;;;;;17.80;8.77;;;15.10;99.90;;;;;;6242236;23;20020;-68
2023/09/30 09:18:35;;;;;;;17.92;8.85;;;15.10;99.90;;;;;;6242368;23;20016;-69
2023/09/30 09:21:22;;;;;;;20.17;8.38;;;15.20;99.90;;;;;;6242293;23;20024;-69
2023/09/30 09:23:49;;;;;;;38.67;9.73;;;15.20;99.90;;;;;;6215078;23;20460;-69
2023/09/30 09:26:35;;;;;;;19.73;8.75;;;15.30;99.90;;;;;;6242085;23;20020;-69
2023/09/30 09:29:06;;;;;;;19.63;9.20;;;15.30;99.90;;;;;;6242339;23;20657;-69
2023/09/30 09:31:36;;;;;;;30.17;9.10;;;15.40;99.90;;;;;;6242373;23;20012;-68
2023/09/30 09:34:04;;;;;;;27.00;9.30;;;15.50;99.90;;;;;;6242006;23;20008;-68
2023/09/30 09:36:41;;;;;;;26.83;8.68;;;15.50;99.90;;;;;;6242379;23;20012;-67
2023/09/30 09:39:07;;;;;;;20.10;8.30;;;15.60;99.90;;;;;;6214885;23;20053;-67
2023/09/30 09:41:33;;;;;;;21.05;9.40;;;15.60;99.90;;;;;;6242142;23;20094;-67
2023/09/30 09:43:59;;;;;;;23.60;9.43;;;15.60;99.90;;;;;;6242099;23;20445;-68
2023/09/30 09:46:27;;;;;;;23.58;8.25;;;15.70;99.90;;;;;;6242184;23;20091;-68
2023/09/30 09:48:54;;;;;;;18.50;8.52;;;15.70;99.90;;;;;;6242397;23;20020;-74
2023/09/30 09:51:21;;;;;;;19.85;8.73;;;15.70;99.90;;;;;;6242346;23;20043;-73
2023/09/30 09:53:49;;;;;;;15.98;7.53;;;15.80;99.90;;;;;;6242619;23;20009;-73
2023/09/30 09:56:16;;;;;;;14.50;7.72;;;15.80;99.90;;;;;;6242379;23;20377;-72
2023/09/30 09:58:43;;;;;;;17.88;8.20;;;15.80;99.90;;;;;;6242401;23;20070;-72
2023/09/30 10:01:10;;;;;;;21.60;8.45;;;15.80;99.90;;;;;;6241903;23;20019;-71
2023/09/30 10:03:37;;;;;;;17.15;8.60;;;16.00;99.90;;;;;;6241809;23;20027;-73
2023/09/30 10:06:04;;;;;;;17.73;8.25;;;16.00;99.90;;;;;;6214917;23;20030;-72
2023/09/30 10:08:42;;;;;;;17.77;8.30;;;16.00;99.90;;;;;;6241874;23;20348;-69
2023/09/30 10:11:09;;;;;;;16.13;7.43;;;16.10;99.90;;;;;;6214530;23;20035;-68
2023/09/30 10:13:55;;;;;;;21.48;7.25;;;16.20;99.90;;;;;;6241985;23;20023;-72
2023/09/30 10:16:36;;;;;;;15.57;7.25;;;16.20;99.90;;;;;;6242031;23;20437;-71
2023/09/30 10:19:15;;;;;;;17.17;7.45;;;16.20;99.90;;;;;;6242255;23;20091;-72
2023/09/30 10:22:16;;;;;;;19.55;8.18;;;16.20;99.90;;;;;;6241689;23;20081;-72
2023/09/30 10:24:42;;;;;;;16.48;6.72;;;16.30;99.90;;;;;;6241196;23;20023;-72
2023/09/30 10:27:29;;;;;;;14.95;6.22;;;16.30;99.90;;;;;;6242149;23;20128;-72
2023/09/30 10:30:13;;;;;;;18.30;7.70;;;16.30;99.90;;;;;;6241567;23;20024;-73
2023/09/30 10:32:51;;;;;;;16.48;6.43;;;16.40;99.90;;;;;;6241767;23;20016;-73
2023/09/30 10:35:17;;;;;;;11.52;5.45;;;16.50;99.90;;;;;;6241618;23;20043;-72
2023/09/30 10:37:44;;;;;;;12.73;6.10;;;16.50;99.90;;;;;;6241584;23;20020;-73
2023/09/30 10:40:26;;;;;;;16.13;6.57;;;16.50;99.90;;;;;;6241163;23;20023;-70
2023/09/30 10:42:54;;;;;;;17.27;6.80;;;16.50;99.90;;;;;;6241551;23;20027;-71
2023/09/30 10:45:38;;;;;;;12.48;5.90;;;16.50;99.90;;;;;;6240896;23;20056;-70
2023/09/30 10:48:27;;;;;;;13.38;6.40;;;16.70;99.90;;;;;;6240054;23;20031;-70
2023/09/30 10:50:58;;;;;;;14.25;5.45;;;16.60;99.90;;;;;;6224338;23;20023;-70
2023/09/30 10:53:27;;;;;;;10.73;5.05;;;16.70;99.90;;;;;;6240707;23;20503;-70
2023/09/30 10:55:57;;;;;;;10.50;4.35;;;16.70;99.90;;;;;;6240801;23;20099;-69
2023/09/30 10:59:00;;;;;;;9.45;3.28;;;16.70;99.90;;;;;;6213852;23;20082;-70
2023/09/30 11:01:33;;;;;;;7.43;2.85;;;16.70;99.90;;;;;;6118325;23;20474;-69
2023/09/30 11:04:03;;;;;;;11.60;3.20;;;16.80;99.90;;;;;;6223100;23;20024;-70
2023/09/30 11:06:29;;;;;;;9.07;2.97;;;16.90;99.90;;;;;;6241047;23;20020;-70
2023/09/30 11:09:00;;;;;;;10.40;3.83;;;16.90;99.90;;;;;;6241273;23;20004;-70
2023/09/30 11:11:52;;;;;;;11.55;2.95;;;17.00;99.90;;;;;;6241407;23;20028;-70
2023/09/30 11:14:19;;;;;;;21.80;5.37;;;17.00;99.90;;;;;;6241713;23;20078;-70
2023/09/30 11:16:45;;;;;;;13.93;3.45;;;17.10;99.90;;;;;;6240771;23;20020;-70
2023/09/30 11:19:12;;;;;;;6.53;2.53;;;17.20;99.90;;;;;;6241166;23;20027;-70
2023/09/30 11:21:41;;;;;;;12.30;3.38;;;17.20;99.90;;;;;;6241537;23;20087;-69
2023/09/30 11:24:07;;;;;;;11.52;3.60;;;17.30;99.90;;;;;;6243004;23;20341;-70
2023/09/30 11:26:34;;;;;;;6.82;2.00;;;17.30;99.90;;;;;;6241863;23;20023;-71
2023/09/30 11:29:11;;;;;;;9.30;2.53;;;17.30;99.90;;;;;;6214781;23;20051;-71
2023/09/30 11:31:41;;;;;;;7.38;2.10;;;17.30;99.90;;;;;;6241910;23;20012;-70
2023/09/30 11:34:07;;;;;;;12.15;2.50;;;17.40;99.90;;;;;;6241470;23;20020;-71
2023/09/30 11:36:42;;;;;;;7.82;2.40;;;17.50;99.90;;;;;;6213980;23;20020;-70
2023/09/30 11:39:09;;;;;;;7.00;2.15;;;17.60;99.90;;;;;;6241352;23;20322;-71
2023/09/30 11:41:39;;;;;;;7.07;1.75;;;17.60;99.90;;;;;;6241131;23;20023;-72
2023/09/30 11:44:12;;;;;;;6.05;1.42;;;17.60;99.90;;;;;;6241090;23;20392;-73
2023/09/30 11:46:55;;;;;;;7.55;2.15;;;17.60;99.90;;;;;;6241194;23;20024;-74
2023/09/30 11:49:35;;;;;;;7.43;1.60;;;17.60;99.90;;;;;;6240735;23;20381;-76
2023/09/30 11:52:03;;;;;;;6.95;1.65;;;17.60;99.90;;;;;;6240952;23;20074;-75
2023/09/30 11:54:46;;;;;;;7.05;1.98;;;17.60;99.90;;;;;;6213991;23;20022;-76
2023/09/30 11:57:16;;;;;;;8.95;1.65;;;17.60;99.90;;;;;;6241407;23;20332;-76
2023/09/30 11:59:43;;;;;;;8.48;1.50;;;17.70;99.90;;;;;;6214175;23;20039;-75
2023/09/30 12:02:09;;;;;;;9.48;1.98;;;17.80;99.90;;;;;;6241130;23;20017;-76
2023/09/30 12:04:36;;;;;;;6.57;1.48;;;17.90;99.90;;;;;;6241473;23;20031;-75
2023/09/30 12:07:02;;;;;;;5.22;1.27;;;17.90;99.90;;;;;;6241027;23;20016;-76
2023/09/30 12:09:29;;;;;;;12.30;2.70;;;17.90;99.90;;;;;;6241109;23;20345;-76
2023/09/30 12:11:57;;;;;;;5.60;1.70;;;18.00;99.90;;;;;;6240255;23;20020;-75
2023/09/30 12:14:24;;;;;;;5.20;1.70;;;18.10;99.90;;;;;;6240815;23;20016;-76
2023/09/30 12:16:50;;;;;;;9.82;1.83;;;18.10;99.90;;;;;;6240617;23;20341;-75
2023/09/30 12:19:20;;;;;;;7.97;1.63;;;18.10;99.90;;;;;;6212898;23;20055;-76
2023/09/30 12:21:47;;;;;;;5.95;1.80;;;18.10;99.90;;;;;;6212838;23;20035;-76
2023/09/30 12:24:19;;;;;;;6.15;1.75;;;18.10;99.90;;;;;;6212928;23;20024;-76
2023/09/30 12:26:49;;;;;;;8.27;1.63;;;18.20;99.90;;;;;;6214670;23;20020;-76
2023/09/30 12:29:17;;;;;;;4.90;1.40;;;18.20;99.90;;;;;;6242241;23;20023;-76
2023/09/30 12:31:44;;;;;;;6.57;1.42;;;18.30;99.90;;;;;;6241905;23;20020;-75
2023/09/30 12:34:11;;;;;;;7.45;2.05;;;18.20;99.90;;;;;;6214595;23;20051;-75
2023/09/30 12:36:36;;;;;;;5.38;1.67;;;18.20;99.90;;;;;;6242112;23;20024;-75
2023/09/30 12:39:10;;;;;;;7.78;1.85;;;18.20;99.90;;;;;;6243049;23;20016;-75
2023/09/30 12:41:40;;;;;;;6.90;1.88;;;18.30;99.90;;;;;;6242422;23;20059;-76
2023/09/30 12:44:06;;;;;;;6.63;2.08;;;18.30;99.90;;;;;;6242606;23;20028;-75
2023/09/30 12:46:34;;;;;;;10.48;2.33;;;18.30;99.90;;;;;;6242937;23;20396;-75
2023/09/30 12:49:02;;;;;;;5.75;1.33;;;18.30;99.90;;;;;;6214745;23;20054;-76